createdAt,value
2018-04-26T14:29:06.265Z,14.20
2018-04-26T14:31:33.729Z,14.30
2018-04-26T14:34:01.212Z,14.30
2018-04-26T14:36:33.896Z,14.30
2018-04-26T14:39:01.373Z,14.30
2018-04-26T14:41:29.173Z,14.40
2018-04-26T14:43:56.671Z,14.60
2018-04-26T14:46:24.169Z,14.60
2018-04-26T14:48:51.633Z,14.50
2018-04-26T14:51:23.288Z,14.40
2018-04-26T14:53:50.770Z,14.40
2018-04-26T14:56:19.498Z,14.40
2018-04-26T14:58:46.989Z,14.50
2018-04-26T15:01:14.454Z,14.80
2018-04-26T15:03:42.705Z,15.10
2018-04-26T15:06:14.279Z,15.10
2018-04-26T15:08:41.744Z,15.10
2018-04-26T15:11:09.257Z,15.10
2018-04-26T15:13:36.725Z,15.00
2018-04-26T15:16:04.205Z,14.80
2018-04-26T15:18:31.684Z,14.50
2018-04-26T15:21:07.138Z,14.30
2018-04-26T15:23:35.715Z,14.20
2018-04-26T15:26:04.677Z,14.20
2018-04-26T15:28:32.157Z,14.20
2018-04-26T15:30:59.660Z,14.20
2018-04-26T15:33:27.103Z,14.30
2018-04-26T15:35:54.776Z,14.40
2018-04-26T15:38:22.564Z,14.70
2018-04-26T15:40:50.202Z,14.80
2018-04-26T15:43:17.932Z,15.00
2018-04-26T15:45:45.424Z,14.90
2018-04-26T15:48:12.929Z,14.90
2018-04-26T15:50:55.192Z,14.90
2018-04-26T15:53:34.416Z,15.00
2018-04-26T15:56:13.814Z,15.00
2018-04-26T16:02:19.579Z,14.80
2018-04-26T16:04:58.769Z,14.80
2018-04-26T16:07:54.524Z,15.30
2018-04-26T16:10:39.521Z,15.20
2018-04-26T16:16:41.677Z,15.60
2018-04-26T16:19:32.779Z,15.40
2018-04-26T16:25:21.745Z,14.90
2018-04-26T16:27:55.902Z,14.90
2018-04-26T16:30:35.111Z,14.80
2018-04-26T16:33:14.358Z,14.80
2018-04-26T16:35:53.720Z,14.70
2018-04-26T16:38:32.901Z,14.50
2018-04-26T16:41:00.437Z,14.40
2018-04-26T16:43:27.917Z,14.40
2018-04-26T16:45:55.384Z,14.40
2018-04-26T16:48:22.889Z,14.70
2018-04-26T16:50:51.155Z,15.90
2018-04-26T16:53:19.381Z,16.80
2018-04-26T16:55:47.757Z,16.80
2018-04-26T16:58:15.213Z,17.50
2018-04-26T17:00:43.313Z,17.40
2018-04-26T17:03:10.770Z,17.30
2018-04-26T17:05:38.235Z,16.70
2018-04-26T17:08:09.039Z,16.60
2018-04-26T17:10:36.505Z,16.50
2018-04-26T17:13:04.006Z,16.30
2018-04-26T17:15:33.137Z,16.40
2018-04-26T17:18:00.626Z,16.40
2018-04-26T17:20:28.085Z,15.80
2018-04-26T17:23:03.134Z,15.40
2018-04-26T17:25:30.607Z,15.50
2018-04-26T17:27:58.934Z,16.10
2018-04-26T17:30:26.320Z,16.00
2018-04-26T17:32:53.885Z,16.30
2018-04-26T17:35:21.333Z,16.40
2018-04-26T17:37:48.800Z,16.60
2018-04-26T17:40:17.205Z,16.60
2018-04-26T17:42:45.554Z,16.50
2018-04-26T17:45:13.077Z,16.50
2018-04-26T17:47:40.570Z,16.80
2018-04-26T17:50:08.017Z,16.40
2018-04-26T17:52:35.512Z,16.10
2018-04-26T17:55:03.730Z,15.50
2018-04-26T17:57:31.198Z,15.50
2018-04-26T17:59:58.795Z,15.20
2018-04-26T18:02:28.196Z,14.20
2018-04-26T18:04:55.673Z,14.20
2018-04-26T18:07:23.145Z,13.80
2018-04-26T18:09:53.630Z,13.40
2018-04-26T18:12:21.108Z,13.10
2018-04-26T18:14:49.339Z,12.80
2018-04-26T18:17:16.823Z,12.70
2018-04-26T18:19:45.139Z,12.50
2018-04-26T18:22:12.616Z,12.40
2018-04-26T18:24:40.065Z,12.20
2018-04-26T18:27:14.584Z,12.20
2018-04-26T18:29:42.060Z,12.10
2018-04-26T18:32:09.545Z,12.00
2018-04-26T18:34:37.003Z,12.00
2018-04-26T18:37:05.236Z,11.80
2018-04-26T18:39:36.906Z,11.60
2018-04-26T18:42:04.404Z,11.60
2018-04-26T18:44:31.867Z,11.50
2018-04-26T18:47:00.138Z,11.40
2018-04-26T18:49:27.888Z,11.30
2018-04-26T18:51:55.749Z,11.30
2018-04-26T18:54:23.210Z,11.20
2018-04-26T18:56:55.240Z,11.20
2018-04-26T18:59:22.635Z,11.10
2018-04-26T19:01:50.881Z,11.10
2018-04-26T19:04:18.471Z,11.00
2018-04-26T19:06:46.150Z,11.10
2018-04-26T19:09:14.051Z,11.10
2018-04-26T19:11:55.609Z,11.10
2018-04-26T19:14:23.863Z,11.00
2018-04-26T19:16:51.856Z,11.00
2018-04-26T19:19:19.319Z,11.00
2018-04-26T19:21:46.759Z,11.00
2018-04-26T19:24:15.921Z,10.90
2018-04-26T19:26:43.429Z,10.90
2018-04-26T19:29:10.857Z,10.90
2018-04-26T19:31:40.780Z,10.70
2018-04-26T19:34:09.028Z,10.70
2018-04-26T19:36:36.506Z,10.60
2018-04-26T19:39:04.911Z,10.60
2018-04-26T19:41:35.696Z,10.50
2018-04-26T19:44:03.164Z,10.30
2018-04-26T19:49:52.394Z,10.20
2018-04-26T19:52:19.884Z,10.20
2018-04-26T19:54:47.464Z,10.10
2018-04-26T19:57:18.835Z,10.10
2018-04-26T19:59:46.296Z,10.10
2018-04-26T20:02:13.797Z,10.10
2018-04-26T20:04:41.249Z,10.00
2018-04-26T20:07:08.727Z,9.80
2018-04-26T20:09:36.177Z,9.70
2018-04-26T20:12:07.891Z,9.70
2018-04-26T20:14:35.384Z,9.70
2018-04-26T20:17:02.843Z,9.70
2018-04-26T20:19:30.335Z,9.60
2018-04-26T20:21:58.361Z,9.50
2018-04-26T20:24:25.863Z,9.50
2018-04-26T20:27:00.856Z,9.40
2018-04-26T20:29:28.253Z,9.20
2018-04-26T20:31:55.808Z,9.10
2018-04-26T20:34:23.278Z,9.00
2018-04-26T20:36:50.986Z,9.00
2018-04-26T20:39:18.574Z,9.10
2018-04-26T20:41:58.249Z,9.00
2018-04-26T20:44:37.500Z,8.90
2018-04-26T20:47:06.668Z,8.90
2018-04-26T20:49:34.133Z,8.90
2018-04-26T20:52:01.592Z,9.10
2018-04-26T20:54:29.121Z,9.20
2018-04-26T20:56:56.617Z,9.30
2018-04-26T20:59:24.833Z,9.30
2018-04-26T21:01:52.312Z,9.40
2018-04-26T21:04:19.811Z,9.30
2018-04-26T21:06:48.507Z,9.10
2018-04-26T21:09:16.749Z,9.00
2018-04-26T21:11:47.393Z,9.00
2018-04-26T21:14:14.965Z,8.90
2018-04-26T21:16:42.417Z,8.80
2018-04-26T21:19:09.911Z,8.70
2018-04-26T21:21:37.377Z,8.60
2018-04-26T21:24:04.868Z,8.60
2018-04-26T21:26:33.380Z,8.60
2018-04-26T21:29:01.185Z,8.60
2018-04-26T21:31:28.635Z,8.70
2018-04-26T21:33:56.471Z,8.70
2018-04-26T21:36:23.917Z,8.70
2018-04-26T21:38:51.400Z,8.70
2018-04-26T21:41:18.861Z,8.70
2018-04-26T21:43:46.952Z,8.50
2018-04-26T21:46:14.409Z,8.40
2018-04-26T21:48:41.888Z,8.30
2018-04-26T21:51:15.182Z,8.10
2018-04-26T21:53:48.250Z,8.00
2018-04-26T21:56:21.418Z,8.10
2018-04-26T21:58:58.893Z,8.00
2018-04-26T22:01:31.917Z,7.90
2018-04-26T22:07:00.364Z,8.00
2018-04-26T22:09:27.835Z,8.00
2018-04-26T22:11:55.542Z,7.90
2018-04-26T22:14:26.376Z,7.90
2018-04-26T22:16:53.869Z,7.80
2018-04-26T22:19:21.731Z,7.70
2018-04-26T22:21:49.201Z,7.60
2018-04-26T22:24:16.660Z,7.50
2018-04-26T22:26:45.058Z,7.40
2018-04-26T22:29:20.567Z,7.40
2018-04-26T22:31:48.138Z,7.30
2018-04-26T22:34:16.710Z,7.30
2018-04-26T22:36:44.161Z,7.30
2018-04-26T22:39:11.686Z,7.40
2018-04-26T22:41:39.152Z,7.40
2018-04-26T22:44:06.631Z,7.60
2018-04-26T22:46:38.212Z,7.70
2018-04-26T22:49:05.668Z,7.80
2018-04-26T22:51:33.124Z,7.70
2018-04-26T22:54:00.605Z,7.80
2018-04-26T22:56:28.125Z,7.90
2018-04-26T22:58:59.848Z,7.90
2018-04-26T23:01:27.298Z,7.80
2018-04-26T23:03:55.641Z,7.70
2018-04-26T23:06:23.271Z,7.70
2018-04-26T23:08:50.729Z,7.60
2018-04-26T23:11:18.195Z,7.60
2018-04-26T23:13:49.466Z,7.50
2018-04-26T23:16:16.916Z,7.60
2018-04-26T23:18:44.397Z,7.70
2018-04-26T23:21:11.832Z,7.70
2018-04-26T23:23:39.295Z,7.60
2018-04-26T23:26:06.801Z,7.50
2018-04-26T23:28:34.250Z,7.40
2018-04-26T23:31:01.774Z,7.20
2018-04-26T23:33:29.479Z,7.10
2018-04-26T23:35:57.900Z,7.00
2018-04-26T23:38:25.371Z,7.10
2018-04-26T23:40:53.638Z,7.10
2018-04-26T23:43:21.105Z,7.10
2018-04-26T23:45:49.321Z,7.20
2018-04-26T23:48:17.497Z,7.20
2018-04-26T23:50:44.953Z,7.10
2018-04-26T23:53:12.430Z,7.10
2018-04-26T23:55:39.921Z,7.00
2018-04-26T23:58:07.900Z,6.90
